Aérodrome :







RETROUVEZ-NOUS SUR...

 
LOGIN :

S'inscrire | Disclaimer

   EN    FR    IT 

 









Légende :    VFR   VFR Marginal   IFR   IFR Intensif   IFR Très Intensif
Visi : 
Plafond : 
>= 8 km
>= 3000ft
5 à 8 km
1000 à 3000 ft
1500m à 5 km
500 à 1000 ft
800 à 1500m
200 à 500 ft
< 800m
< 200 ft
Symboles :   Orages  Brouillard  Fortes neiges  Fortes précipitations  Vent > 20 kt






- Altitude de l'aérodrome : 59 ft
- Code IATA : PBM


SMJP - J.A. Pengel Int.

DERNIER METAR :
  • 041700Z 08008KT 9999 -SHRA FEW010 FEW015CB 28/26 Q1010 NOSIG

METARs EXPIRÉS :
  • 041634Z 07016KT 2500 SHRA FEW008 FEW015CB SCT020 30/25 Q1010 BECMG AT1650 5000 SHRA
  • 041600Z 08009KT 9999 SCT025 33/24 Q1010 NOSIG
  • 041500Z 10010KT 9999 SCT020 31/24 Q1012 NOSIG

TAF TAF SMJP
Valide du 04 à 18h jusqu'au 05 à 18h UTC


041600Z 0418/0518 07010KT 9999 SCT025 TX32/0418Z TN23/0509Z
TEMPO 0418/0421 VRB12G22KT 4000 SHRA FEW015CB SCT020
BECMG 0500/0502 08005KT CAVOK
TEMPO 0508/0511 VRB02KT 2000 BR SCT002
FM051200 07010KT 9999 SCT015



MET'MAP, la Météo Aéronautique d'un coup d'oeil ! - Copyright ORBIFLY Décembre 2007 - Disclaimer

ORBIFLY MET'MAP TEAM :

Programmation & Développement : Alexandra Zaïnal
Sur une idée originale de : Baudouin d'Aumeries
Assistance à la programmation : Marc-Olivier Méhu
Soutien technique & logistique : Manuel Goepfert

Contact : metmap@orbifly.com




SOURCES & CREDITS :

   NOAA